地図

経路データ

SID SEASON NUMBER BASIN SUBBASIN NAME ISO_TIME NATURE LAT LON WMO_WIND WMO_PRES WMO_AGENCY TRACK_TYPE DIST2LAND LANDFALL IFLAG USA_AGENCY USA_ATCF_ID USA_LAT USA_LON USA_RECORD USA_STATUS USA_WIND USA_PRES USA_SSHS USA_R34_NE USA_R34_SE USA_R34_SW USA_R34_NW USA_R50_NE USA_R50_SE USA_R50_SW USA_R50_NW USA_R64_NE USA_R64_SE USA_R64_SW USA_R64_NW USA_POCI USA_ROCI USA_RMW USA_EYE TOKYO_LAT TOKYO_LON TOKYO_GRADE TOKYO_WIND TOKYO_PRES TOKYO_R50_DIR TOKYO_R50_LONG TOKYO_R50_SHORT TOKYO_R30_DIR TOKYO_R30_LONG TOKYO_R30_SHORT TOKYO_LAND CMA_LAT CMA_LON CMA_CAT CMA_WIND CMA_PRES HKO_LAT HKO_LON HKO_CAT HKO_WIND HKO_PRES NEWDELHI_LAT NEWDELHI_LON NEWDELHI_GRADE NEWDELHI_WIND NEWDELHI_PRES NEWDELHI_CI NEWDELHI_DP NEWDELHI_POCI REUNION_LAT REUNION_LON REUNION_TYPE REUNION_WIND REUNION_PRES REUNION_TNUM REUNION_CI REUNION_RMW REUNION_R34_NE REUNION_R34_SE REUNION_R34_SW REUNION_R34_NW REUNION_R50_NE REUNION_R50_SE REUNION_R50_SW REUNION_R50_NW REUNION_R64_NE REUNION_R64_SE REUNION_R64_SW REUNION_R64_NW BOM_LAT BOM_LON BOM_TYPE BOM_WIND BOM_PRES BOM_TNUM BOM_CI BOM_RMW BOM_R34_NE BOM_R34_SE BOM_R34_SW BOM_R34_NW BOM_R50_NE BOM_R50_SE BOM_R50_SW BOM_R50_NW BOM_R64_NE BOM_R64_SE BOM_R64_SW BOM_R64_NW BOM_ROCI BOM_POCI BOM_EYE BOM_POS_METHOD BOM_PRES_METHOD NADI_LAT NADI_LON NADI_CAT NADI_WIND NADI_PRES WELLINGTON_LAT WELLINGTON_LON WELLINGTON_WIND WELLINGTON_PRES DS824_LAT DS824_LON DS824_STAGE DS824_WIND DS824_PRES TD9636_LAT TD9636_LON TD9636_STAGE TD9636_WIND TD9636_PRES TD9635_LAT TD9635_LON TD9635_WIND TD9635_PRES TD9635_ROCI NEUMANN_LAT NEUMANN_LON NEUMANN_CLASS NEUMANN_WIND NEUMANN_PRES MLC_LAT MLC_LON MLC_CLASS MLC_WIND MLC_PRES USA_GUST BOM_GUST BOM_GUST_PER REUNION_GUST REUNION_GUST_PER USA_SEAHGT USA_SEARAD_NE USA_SEARAD_SE USA_SEARAD_SW USA_SEARAD_NW STORM_SPEED STORM_DIR
1921261N12145 1921 48 WP MM NOT_NAMED 1921-09-17 22:00:00 NR 12.2000 144.900 main 1613 1613 __________O___ -1 12.2000 144.900 3 7 345
1921261N12145 1921 48 WP MM NOT_NAMED 1921-09-18 00:00:00 NR 12.4329 144.844 main 1636 1647 __________P___ -1 12.4329 144.844 3 7 347
1921261N12145 1921 48 WP MM NOT_NAMED 1921-09-18 03:00:00 NR 12.7762 144.762 main 1681 1681 __________P___ -1 12.7762 144.762 3 7 347
1921261N12145 1921 48 WP MM NOT_NAMED 1921-09-18 06:00:00 NR 13.1038 144.686 main 1715 1715 __________P___ -1 13.1038 144.686 3 6 348
1921261N12145 1921 48 WP MM NOT_NAMED 1921-09-18 09:00:00 NR 13.4064 144.619 main 1750 1750 __________P___ -1 13.4064 144.619 3 6 349
1921261N12145 1921 48 WP MM NOT_NAMED 1921-09-18 10:00:00 NR 13.5000 144.600 main 1761 1761 __________O___ -1 13.5000 144.600 4 6 349
1921261N12145 1921 48 WP MM NOT_NAMED 1921-09-18 12:00:00 NR 13.6758 144.565 main 1783 1783 __________P___ -1 13.6758 144.565 4 5 348
1921261N12145 1921 48 WP MM NOT_NAMED 1921-09-18 15:00:00 NR 13.9204 144.507 main 1807 1807 __________P___ -1 13.9204 144.507 4 5 344
1921261N12145 1921 48 WP MM NOT_NAMED 1921-09-18 18:00:00 NR 14.1589 144.417 main 1842 1842 __________P___ -1 14.1589 144.417 4 5 335
1921261N12145 1921 48 WP MM NOT_NAMED 1921-09-18 21:00:00 NR 14.4102 144.268 main 1865 1865 __________P___ -1 14.4102 144.268 4 6 329
1921261N12145 1921 48 WP MM NOT_NAMED 1921-09-18 22:00:00 NR 14.5000 144.200 main 1878 1878 __________O___ -1 14.5000 144.200 4 8 323
1921261N12145 1921 48 WP MM NOT_NAMED 1921-09-19 00:00:00 NR 14.7179 144.035 main 1903 1903 __________P___ -1 14.7179 144.035 4 9 321
1921261N12145 1921 48 WP MM NOT_NAMED 1921-09-19 03:00:00 NR 15.0641 143.723 main 1953 1953 __________P___ -1 15.0641 143.723 4 10 316
1921261N12145 1921 48 WP MM NOT_NAMED 1921-09-19 06:00:00 NR 15.4056 143.353 main 1966 1918 __________P___ -1 15.4056 143.353 4 10 311
1921261N12145 1921 48 WP MM NOT_NAMED 1921-09-19 09:00:00 NR 15.7114 142.943 main 1918 1909 __________P___ -1 15.7114 142.943 4 10 307
1921261N12145 1921 48 WP MM NOT_NAMED 1921-09-19 10:00:00 NR 15.8000 142.800 main 1909 1880 __________O___ -1 15.8000 142.800 4 9 298
1921261N12145 1921 48 WP MM NOT_NAMED 1921-09-19 12:00:00 NR 15.9321 142.520 main 1880 1842 __________P___ -1 15.9321 142.520 4 9 292
1921261N12145 1921 48 WP MM NOT_NAMED 1921-09-19 15:00:00 NR 16.0860 142.074 main 1842 1792 __________P___ -1 16.0860 142.074 4 9 288
1921261N12145 1921 48 WP MM NOT_NAMED 1921-09-19 18:00:00 NR 16.2143 141.613 main 1792 1753 __________P___ -1 16.2143 141.613 4 9 287
1921261N12145 1921 48 WP MM NOT_NAMED 1921-09-19 21:00:00 NR 16.3485 141.151 main 1753 1735 __________P___ -1 16.3485 141.151 4 9 288
1921261N12145 1921 48 WP MM NOT_NAMED 1921-09-19 22:00:00 NR 16.4000 141.000 main 1735 1706 __________O___ -1 16.4000 141.000 4 9 292
1921261N12145 1921 48 WP MM NOT_NAMED 1921-09-20 00:00:00 NR 16.5250 140.695 main 1706 1661 __________P___ -1 16.5250 140.695 4 10 295
1921261N12145 1921 48 WP MM NOT_NAMED 1921-09-20 03:00:00 NR 16.7313 140.244 main 1661 1626 __________P___ -1 16.7313 140.244 4 10 297
1921261N12145 1921 48 WP MM NOT_NAMED 1921-09-20 06:00:00 NR 16.9601 139.814 main 1629 1596 __________P___ -1 16.9601 139.814 4 9 301
1921261N12145 1921 48 WP MM NOT_NAMED 1921-09-20 09:00:00 NR 17.2113 139.420 main 1596 1589 __________P___ -1 17.2113 139.420 4 9 305
1921261N12145 1921 48 WP MM NOT_NAMED 1921-09-20 10:00:00 NR 17.3000 139.300 main 1589 1573 __________O___ -1 17.3000 139.300 4 8 309
1921261N12145 1921 48 WP MM NOT_NAMED 1921-09-20 12:00:00 NR 17.4799 139.080 main 1577 1555 __________P___ -1 17.4799 139.080 4 8 314
1921261N12145 1921 48 WP MM NOT_NAMED 1921-09-20 15:00:00 NR 17.7689 138.787 main 1559 1543 __________P___ -1 17.7689 138.787 4 8 318
1921261N12145 1921 48 WP MM NOT_NAMED 1921-09-20 18:00:00 NR 18.0754 138.526 main 1543 1533 __________P___ -1 18.0754 138.526 4 8 322
1921261N12145 1921 48 WP MM NOT_NAMED 1921-09-20 21:00:00 NR 18.3928 138.281 main 1537 1528 __________P___ -1 18.3928 138.281 4 8 324
1921261N12145 1921 48 WP MM NOT_NAMED 1921-09-20 22:00:00 NR 18.5000 138.200 main 1533 1524 __________O___ -1 18.5000 138.200 4 8 322
1921261N12145 1921 48 WP MM NOT_NAMED 1921-09-21 00:00:00 NR 18.7083 138.022 main 1524 1515 __________P___ -1 18.7083 138.022 4 8 322
1921261N12145 1921 48 WP MM NOT_NAMED 1921-09-21 03:00:00 NR 19.0270 137.762 main 1518 1464 __________P___ -1 19.0270 137.762 4 8 323
1921261N12145 1921 48 WP MM NOT_NAMED 1921-09-21 06:00:00 NR 19.3533 137.512 main 1464 1424 __________P___ -1 19.3533 137.512 4 8 325
1921261N12145 1921 48 WP MM NOT_NAMED 1921-09-21 09:00:00 NR 19.6871 137.275 main 1424 1410 __________P___ -1 19.6871 137.275 4 8 327
1921261N12145 1921 48 WP MM NOT_NAMED 1921-09-21 10:00:00 NR 19.8000 137.200 main 1410 1380 __________O___ -1 19.8000 137.200 4 8 328
1921261N12145 1921 48 WP MM NOT_NAMED 1921-09-21 12:00:00 NR 20.0276 137.045 main 1380 1331 __________P___ -1 20.0276 137.045 4 8 328
1921261N12145 1921 48 WP MM NOT_NAMED 1921-09-21 15:00:00 NR 20.3753 136.824 main 1331 1292 __________P___ -1 20.3753 136.824 4 8 331
1921261N12145 1921 48 WP MM NOT_NAMED 1921-09-21 18:00:00 NR 20.7279 136.624 main 1292 1247 __________P___ -1 20.7279 136.624 4 8 334
1921261N12145 1921 48 WP MM NOT_NAMED 1921-09-21 21:00:00 NR 21.0821 136.451 main 1247 1232 __________P___ -1 21.0821 136.451 4 8 336
1921261N12145 1921 48 WP MM NOT_NAMED 1921-09-21 22:00:00 NR 21.2000 136.400 main 1232 1208 __________O___ -1 21.2000 136.400 4 8 339
1921261N12145 1921 48 WP MM NOT_NAMED 1921-09-22 00:00:00 NR 21.4359 136.305 main 1208 1163 __________P___ -1 21.4359 136.305 4 8 342
1921261N12145 1921 48 WP MM NOT_NAMED 1921-09-22 03:00:00 NR 21.7898 136.188 main 1163 1129 __________P___ -1 21.7898 136.188 4 7 345
1921261N12145 1921 48 WP MM NOT_NAMED 1921-09-22 06:00:00 NR 22.1411 136.096 main 1129 1084 __________P___ -1 22.1411 136.096 4 7 348
1921261N12145 1921 48 WP MM NOT_NAMED 1921-09-22 09:00:00 NR 22.4867 136.022 main 1084 1074 __________P___ -1 22.4867 136.022 4 7 349
1921261N12145 1921 48 WP MM NOT_NAMED 1921-09-22 10:00:00 NR 22.6000 136.000 main 1074 1055 __________O___ -1 22.6000 136.000 4 7 351
1921261N12145 1921 48 WP MM NOT_NAMED 1921-09-22 12:00:00 NR 22.8250 135.955 main 1055 1011 __________P___ -1 22.8250 135.955 4 7 351
1921261N12145 1921 48 WP MM NOT_NAMED 1921-09-22 15:00:00 NR 23.1562 135.900 main 1011 982 __________P___ -1 23.1562 135.900 4 7 352
1921261N12145 1921 48 WP MM NOT_NAMED 1921-09-22 18:00:00 NR 23.4800 135.856 main 982 948 __________P___ -1 23.4800 135.856 4 6 353
1921261N12145 1921 48 WP MM NOT_NAMED 1921-09-22 21:00:00 NR 23.7962 135.814 main 948 938 __________P___ -1 23.7962 135.814 4 6 352
1921261N12145 1921 48 WP MM NOT_NAMED 1921-09-22 22:00:00 NR 23.9000 135.800 main 938 919 __________O___ -1 23.9000 135.800 4 6 350
1921261N12145 1921 48 WP MM NOT_NAMED 1921-09-23 00:00:00 NR 24.1083 135.759 main 919 885 __________P___ -1 24.1083 135.759 4 6 349
1921261N12145 1921 48 WP MM NOT_NAMED 1921-09-23 03:00:00 NR 24.4146 135.697 main 885 852 __________P___ -1 24.4146 135.697 4 6 350
1921261N12145 1921 48 WP MM NOT_NAMED 1921-09-23 06:00:00 NR 24.7133 135.643 main 852 824 __________P___ -1 24.7133 135.643 4 6 353
1921261N12145 1921 48 WP MM NOT_NAMED 1921-09-23 09:00:00 NR 25.0046 135.607 main 824 814 __________P___ -1 25.0046 135.607 4 6 353
1921261N12145 1921 48 WP MM NOT_NAMED 1921-09-23 10:00:00 NR 25.1000 135.600 main 814 794 __________O___ -1 25.1000 135.600 4 5 0
1921261N12145 1921 48 WP MM NOT_NAMED 1921-09-23 12:00:00 NR 25.2707 135.592 main 794 775 __________P___ -1 25.2707 135.592 4 5 357
1921261N12145 1921 48 WP MM NOT_NAMED 1921-09-23 15:00:00 NR 25.5200 135.598 main 775 747 __________P___ -1 25.5200 135.598 4 5 4
1921261N12145 1921 48 WP MM NOT_NAMED 1921-09-23 18:00:00 NR 25.7834 135.627 main 747 724 __________P___ -1 25.7834 135.627 4 6 7
1921261N12145 1921 48 WP MM NOT_NAMED 1921-09-23 21:00:00 NR 26.0861 135.678 main 724 715 __________P___ -1 26.0861 135.678 4 6 10
1921261N12145 1921 48 WP MM NOT_NAMED 1921-09-23 22:00:00 NR 26.2000 135.700 main 715 688 __________O___ -1 26.2000 135.700 4 8 8
1921261N12145 1921 48 WP MM NOT_NAMED 1921-09-24 00:00:00 NR 26.4600 135.742 main 688 658 __________P___ -1 26.4600 135.742 4 8 9
1921261N12145 1921 48 WP MM NOT_NAMED 1921-09-24 03:00:00 NR 26.8942 135.823 main 658 623 __________P___ -1 26.8942 135.823 4 9 10
1921261N12145 1921 48 WP MM NOT_NAMED 1921-09-24 06:00:00 NR 27.3619 135.927 main 623 598 __________P___ -1 27.3619 135.927 4 10 12
1921261N12145 1921 48 WP MM NOT_NAMED 1921-09-24 09:00:00 NR 27.8414 136.053 main 605 591 __________P___ -1 27.8414 136.053 4 10 13
1921261N12145 1921 48 WP MM NOT_NAMED 1921-09-24 10:00:00 NR 28.0000 136.100 main 591 570 __________O___ -1 28.0000 136.100 4 10 15
1921261N12145 1921 48 WP MM NOT_NAMED 1921-09-24 12:00:00 NR 28.3119 136.201 main 570 516 __________P___ -1 28.3119 136.201 4 10 17
1921261N12145 1921 48 WP MM NOT_NAMED 1921-09-24 15:00:00 NR 28.7681 136.367 main 516 473 __________P___ -1 28.7681 136.367 4 10 19
1921261N12145 1921 48 WP MM NOT_NAMED 1921-09-24 18:00:00 NR 29.2141 136.548 main 473 421 __________P___ -1 29.2141 136.548 4 9 20
1921261N12145 1921 48 WP MM NOT_NAMED 1921-09-24 21:00:00 NR 29.6540 136.736 main 421 412 __________P___ -1 29.6540 136.736 4 9 21
1921261N12145 1921 48 WP MM NOT_NAMED 1921-09-24 22:00:00 NR 29.8000 136.800 main 412 __________O___ -1 29.8000 136.800 4 9 23

デジタル台風データ・検索

IBTrACS Databaseについて

本データベースは、米国NOAAが公開する1842年以降の世界の熱帯低気圧のベストトラックデータアーカイブInternational Best Track Archive for Climate Stewardship (IBTrACS)を、ウェブで閲覧しやすい形式に変換したものです。

最終更新日:2021-10-25